Time;durP1;ratioP1;P1;durP2;ratioP2;P2;SDS_P1;SDS_P2;PMS_P1;PMS_P2;Temp;Humidity;BMP_temperature;BMP_pressure;BME280_temperature;BME280_humidity;BME280_pressure;Samples;Min_cycle;Max_cycle;Signal;HPM_P1;HPM_P2
2022/07/03 00:01:26;;;;;;;7.80;3.25;;;;;;;16.02;79.00;99960.66;8329632;28;20053;-75
2022/07/03 00:05:28;;;;;;;4.78;2.70;;;;;;;16.01;78.89;99948.16;8301513;28;20409;-74
2022/07/03 00:09:29;;;;;;;6.20;3.05;;;;;;;15.99;79.10;99943.03;8287752;28;20076;-75
2022/07/03 00:13:30;;;;;;;5.63;2.95;;;;;;;15.97;79.02;99936.28;8348367;28;20045;-75
2022/07/03 00:17:31;;;;;;;3.60;2.67;;;;;;;15.91;79.37;99948.50;8293016;28;20538;-75
2022/07/03 00:21:41;;;;;;;7.05;2.95;;;;;;;15.87;79.73;99937.44;8363125;28;20059;-76
2022/07/03 00:25:44;;;;;;;5.07;3.05;;;;;;;15.82;79.86;99939.53;8348963;28;20048;-75
2022/07/03 00:29:46;;;;;;;4.45;2.83;;;;;;;15.79;80.27;99940.19;8350707;28;20048;-75
2022/07/03 00:33:46;;;;;;;7.88;3.05;;;;;;;15.77;80.39;99931.53;8360328;28;20059;-75
2022/07/03 00:37:48;;;;;;;5.10;3.22;;;;;;;15.78;80.21;99944.03;8296215;28;20053;-76
2022/07/03 00:41:59;;;;;;;4.82;2.97;;;;;;;15.73;80.55;99946.91;8296883;28;20056;-75
2022/07/03 00:46:10;;;;;;;4.93;3.00;;;;;;;15.68;80.81;99944.34;8263086;28;20052;-74
2022/07/03 00:50:11;;;;;;;4.97;2.88;;;;;;;15.63;80.82;99951.56;8296355;28;20112;-75
2022/07/03 00:54:17;;;;;;;7.82;3.40;;;;;;;15.57;81.27;99944.69;8294228;28;20038;-75
2022/07/03 00:58:18;;;;;;;5.70;3.13;;;;;;;15.48;81.67;99943.88;8286855;28;20045;-75
2022/07/03 01:03:03;;;;;;;6.75;3.53;;;;;;;15.43;82.04;99938.59;8247852;28;20512;-75
2022/07/03 01:07:12;;;;;;;6.95;3.13;;;;;;;15.30;82.03;99928.66;8308209;28;20481;-75
2022/07/03 01:11:27;;;;;;;6.15;3.42;;;;;;;15.26;82.43;99927.69;8360050;28;20044;-75
2022/07/03 01:15:39;;;;;;;6.13;3.05;;;;;;;15.20;82.94;99929.75;8349662;28;20037;-75
2022/07/03 01:19:45;;;;;;;8.07;3.60;;;;;;;15.17;83.12;99929.63;8359054;28;20055;-75
2022/07/03 01:24:14;;;;;;;4.82;3.60;;;;;;;15.15;83.35;99920.97;8364423;28;20131;-75
2022/07/03 01:28:16;;;;;;;4.50;3.45;;;;;;;15.10;83.07;99929.28;8364137;28;20045;-75
2022/07/03 01:32:19;;;;;;;6.82;3.72;;;;;;;15.09;83.37;99916.78;8326617;28;20071;-75
2022/07/03 01:36:22;;;;;;;9.75;4.00;;;;;;;15.08;83.47;99909.75;8330045;28;20484;-75
2022/07/03 01:40:23;;;;;;;8.02;4.10;;;;;;;15.05;83.75;99904.94;8345660;28;20128;-75
2022/07/03 01:44:25;;;;;;;4.75;3.88;;;;;;;15.02;84.13;99900.13;8363632;28;20075;-75
2022/07/03 01:48:28;;;;;;;6.57;3.65;;;;;;;14.96;84.17;99904.94;8337353;28;20049;-75
2022/07/03 01:52:31;;;;;;;6.60;4.13;;;;;;;14.94;84.45;99887.34;8349078;28;20061;-76
2022/07/03 01:56:33;;;;;;;14.13;4.63;;;;;;;14.93;84.69;99899.31;8346274;28;20188;-75
2022/07/03 02:01:04;;;;;;;6.85;3.80;;;;;;;14.89;84.95;99895.66;8351424;28;20053;-76
2022/07/03 02:05:09;;;;;;;;;;;;;;;14.89;84.80;99887.50;8223933;28;20046;-74
2022/07/03 02:09:11;;;;;;;5.32;4.15;;;;;;;14.85;84.82;99900.13;8180965;28;19923;-74
2022/07/03 02:13:24;;;;;;;8.98;4.43;;;;;;;14.74;85.03;99895.00;8196812;29;20062;-76
2022/07/03 02:17:27;;;;;;;6.70;4.13;;;;;;;14.68;85.33;99890.00;8180933;29;20514;-75
2022/07/03 02:21:29;;;;;;;7.47;3.85;;;;;;;14.69;85.48;99891.63;8180502;29;20546;-76
2022/07/03 02:25:39;;;;;;;9.65;4.45;;;;;;;14.64;85.75;99895.28;8197669;29;20058;-74
2022/07/03 02:30:02;;;;;;;7.28;4.38;;;;;;;14.59;86.05;99887.25;8179413;29;20094;-74
2022/07/03 02:34:05;;;;;;;4.50;3.80;;;;;;;14.54;86.22;99879.25;8195327;29;20051;-75
2022/07/03 02:38:21;;;;;;;5.85;4.38;;;;;;;14.49;86.52;99873.97;8203669;29;20047;-76
2022/07/03 02:43:01;;;;;;;9.23;4.43;;;;;;;14.45;86.66;99875.72;8279228;28;20050;-76
2022/07/03 02:47:25;;;;;;;7.80;4.30;;;;;;;14.43;86.75;99883.41;8298821;28;20080;-76
2022/07/03 02:51:36;;;;;;;6.95;4.13;;;;;;;14.40;86.79;99884.00;8266129;28;20054;-75
2022/07/03 02:55:43;;;;;;;6.68;4.28;;;;;;;14.35;86.84;99881.41;8244313;28;20464;-75
2022/07/03 03:00:00;;;;;;;4.72;3.80;;;;;;;14.33;86.96;99883.63;8295759;28;20050;-74
2022/07/03 03:04:13;;;;;;;11.18;4.10;;;;;;;14.26;87.12;99886.03;8303543;28;20564;-74
2022/07/03 03:08:43;;;;;;;9.55;4.47;;;;;;;14.21;87.07;99880.72;8285224;28;20061;-75
2022/07/03 03:12:47;;;;;;;7.40;3.92;;;;;;;14.20;87.31;99884.56;8302529;28;20481;-75
2022/07/03 03:16:52;;;;;;;6.85;4.10;;;;;;;14.20;87.45;99873.69;8303106;28;20038;-74
2022/07/03 03:20:56;;;;;;;5.75;4.38;;;;;;;14.18;87.38;99875.91;8323673;28;20064;-75
2022/07/03 03:24:57;;;;;;;5.65;4.28;;;;;;;14.14;87.47;99880.38;8350796;28;20445;-74
2022/07/03 03:28:59;;;;;;;5.53;4.30;;;;;;;14.12;87.63;99877.94;8300765;28;20083;-74
2022/07/03 03:33:19;;;;;;;10.25;4.35;;;;;;;14.14;87.82;99891.22;8316994;28;20053;-74
2022/07/03 03:37:20;;;;;;;7.45;5.13;;;;;;;14.18;87.80;99875.91;8367293;28;20041;-75
2022/07/03 03:41:21;;;;;;;6.20;5.25;;;;;;;14.24;87.92;99880.09;8365811;28;20063;-75
2022/07/03 03:45:25;;;;;;;11.48;5.57;;;;;;;14.37;87.81;99890.09;8357679;28;20052;-75
2022/07/03 03:49:27;;;;;;;6.75;5.78;;;;;;;14.48;87.90;99885.97;8322418;28;20065;-75
2022/07/03 03:53:29;;;;;;;9.63;5.30;;;;;;;14.61;87.97;99895.91;8363552;28;20489;-75
2022/07/03 03:57:30;;;;;;;10.00;5.70;;;;;;;14.77;88.24;99897.06;8360048;28;20076;-75
2022/07/03 04:01:34;;;;;;;6.93;5.20;;;;;;;14.95;88.64;99895.19;8361621;28;20042;-76
2022/07/03 04:05:35;;;;;;;5.70;5.03;;;;;;;15.14;88.37;99892.16;8363691;28;20515;-75
2022/07/03 04:09:36;;;;;;;6.22;5.47;;;;;;;15.29;88.21;99872.59;8330581;28;20060;-75
2022/07/03 04:13:37;;;;;;;6.82;5.40;;;;;;;15.42;88.23;99866.22;8354730;28;20084;-75
2022/07/03 04:17:38;;;;;;;8.70;5.75;;;;;;;15.56;87.96;99861.41;8364929;28;20132;-75
2022/07/03 04:21:39;;;;;;;6.05;5.25;;;;;;;15.71;88.22;99853.84;8366106;28;20072;-75
2022/07/03 04:25:40;;;;;;;8.73;4.90;;;;;;;15.82;87.93;99857.81;8365174;28;20040;-75
2022/07/03 04:29:41;;;;;;;8.70;4.90;;;;;;;15.92;87.58;99860.19;8348559;28;20477;-75
2022/07/03 04:33:42;;;;;;;9.05;4.70;;;;;;;16.01;87.16;99850.09;8363389;28;20045;-75
2022/07/03 04:37:44;;;;;;;5.50;4.88;;;;;;;16.16;87.41;99852.25;8338626;28;20091;-76
2022/07/03 04:41:44;;;;;;;11.35;5.40;;;;;;;16.28;87.22;99849.66;8299370;28;20488;-75
2022/07/03 04:45:46;;;;;;;15.75;5.10;;;;;;;16.37;86.97;99847.66;8312303;28;20051;-74
2022/07/03 04:49:47;;;;;;;8.45;4.70;;;;;;;16.47;86.71;99852.75;8362142;28;20049;-75
2022/07/03 04:53:48;;;;;;;5.97;4.60;;;;;;;16.54;86.52;99851.44;8342756;28;20037;-74
2022/07/03 04:57:49;;;;;;;6.80;4.88;;;;;;;16.62;86.10;99858.78;8363993;28;20060;-74
2022/07/03 05:01:50;;;;;;;11.93;5.40;;;;;;;16.67;86.15;99855.84;8357788;28;20075;-74
2022/07/03 05:05:52;;;;;;;10.23;5.40;;;;;;;16.69;86.91;99864.50;8364768;28;20072;-74
2022/07/03 05:09:53;;;;;;;7.95;6.60;;;;;;;16.70;87.15;99866.13;8364675;28;20052;-75
2022/07/03 05:13:54;;;;;;;9.25;7.32;;;;;;;16.69;87.54;99865.31;8356040;28;20148;-75
2022/07/03 05:17:55;;;;;;;13.13;7.70;;;;;;;16.80;86.92;99865.72;8364668;28;20063;-75
2022/07/03 05:21:56;;;;;;;10.88;6.75;;;;;;;16.96;86.34;99864.00;8360208;28;20049;-75
2022/07/03 05:25:58;;;;;;;7.47;6.70;;;;;;;17.08;86.44;99861.31;8343749;28;20068;-74
2022/07/03 05:29:59;;;;;;;11.32;6.65;;;;;;;17.10;86.39;99864.53;8346947;28;20049;-74
2022/07/03 05:34:01;;;;;;;10.50;7.80;;;;;;;17.19;85.88;99862.53;8311563;28;20045;-75
2022/07/03 05:38:02;;;;;;;9.52;7.25;;;;;;;17.26;85.64;99868.25;8323855;28;20048;-75
2022/07/03 05:42:05;;;;;;;9.50;7.03;;;;;;;17.36;85.67;99871.69;8357341;28;20124;-75
2022/07/03 05:46:06;;;;;;;11.95;8.15;;;;;;;17.51;85.36;99868.34;8362039;28;20047;-75
2022/07/03 05:50:07;;;;;;;10.38;7.22;;;;;;;17.69;84.61;99864.34;8350028;28;20045;-76
2022/07/03 05:54:08;;;;;;;10.65;7.38;;;;;;;17.81;84.44;99875.31;8364104;28;20056;-76
2022/07/03 05:58:10;;;;;;;12.35;7.35;;;;;;;17.83;84.95;99864.81;8364611;28;20053;-74
2022/07/03 06:02:10;;;;;;;14.50;7.18;;;;;;;17.89;84.75;99863.47;8354468;28;20054;-75
2022/07/03 06:06:12;;;;;;;12.50;8.20;;;;;;;17.93;85.06;99869.84;8360362;28;20124;-75
2022/07/03 06:10:13;;;;;;;9.13;7.53;;;;;;;17.91;84.80;99866.69;8362162;28;20489;-75
2022/07/03 06:14:14;;;;;;;10.80;7.82;;;;;;;17.94;84.51;99871.44;8354839;28;20037;-74
2022/07/03 06:18:15;;;;;;;11.63;7.95;;;;;;;18.04;84.35;99865.53;8348681;28;20041;-75
2022/07/03 06:22:16;;;;;;;10.57;7.78;;;;;;;18.21;83.70;99858.28;8358544;28;20052;-76
2022/07/03 06:26:17;;;;;;;10.18;7.32;;;;;;;18.40;83.49;99864.00;8358847;28;20077;-75
2022/07/03 06:30:18;;;;;;;9.98;6.90;;;;;;;18.53;82.78;99860.09;8342397;28;20056;-74
2022/07/03 06:34:19;;;;;;;12.38;6.90;;;;;;;18.60;82.71;99865.84;8326020;28;20049;-74
2022/07/03 06:38:20;;;;;;;11.13;6.93;;;;;;;18.65;82.62;99862.88;8358307;28;20413;-76
2022/07/03 06:42:21;;;;;;;8.75;5.97;;;;;;;18.57;82.01;99863.75;8342309;28;20188;-74
2022/07/03 06:46:22;;;;;;;7.53;5.78;;;;;;;18.74;81.99;99866.25;8356095;28;20044;-75
2022/07/03 06:50:23;;;;;;;8.52;5.57;;;;;;;18.91;80.96;99859.75;8354755;28;20063;-77
2022/07/03 06:54:25;;;;;;;7.68;5.43;;;;;;;18.92;80.54;99862.13;8313269;28;20037;-74
2022/07/03 06:58:25;;;;;;;7.95;5.43;;;;;;;18.97;80.22;99853.69;8353604;28;20041;-75
2022/07/03 07:02:26;;;;;;;8.10;5.18;;;;;;;19.01;79.81;99852.97;8362454;28;20508;-75
2022/07/03 07:06:28;;;;;;;7.95;5.20;;;;;;;19.06;79.84;99856.28;8362339;28;20057;-76
2022/07/03 07:10:29;;;;;;;7.45;5.18;;;;;;;19.17;79.28;99845.63;8340979;28;20056;-76
2022/07/03 07:14:30;;;;;;;10.07;5.13;;;;;;;19.30;78.66;99849.91;8338854;28;20408;-76
2022/07/03 07:18:31;;;;;;;8.43;4.28;;;;;;;19.54;77.33;99833.41;8359946;28;20607;-76
2022/07/03 07:22:32;;;;;;;6.10;4.60;;;;;;;19.74;76.65;99826.88;8299891;28;20508;-77
2022/07/03 07:26:34;;;;;;;6.93;3.72;;;;;;;19.79;76.39;99829.38;8367864;28;20535;-74
2022/07/03 07:30:35;;;;;;;3.45;3.13;;;;;;;19.80;75.24;99825.47;8365770;28;20056;-75
2022/07/03 07:34:36;;;;;;;7.03;3.47;;;;;;;19.93;74.43;99822.66;8367810;28;20045;-76
2022/07/03 07:38:37;;;;;;;6.07;2.80;;;;;;;20.28;73.11;99809.81;8359770;28;20080;-74
2022/07/03 07:42:38;;;;;;;3.08;2.75;;;;;;;20.30;72.28;99818.50;8354160;28;20103;-75
2022/07/03 07:46:39;;;;;;;3.67;2.85;;;;;;;20.52;71.86;99820.59;8285437;28;20505;-74
2022/07/03 07:50:40;;;;;;;3.55;2.60;;;;;;;20.69;71.65;99815.84;8357389;28;20049;-76
2022/07/03 07:54:41;;;;;;;5.53;3.10;;;;;;;20.61;71.66;99815.72;8352991;28;20091;-76
2022/07/03 07:58:42;;;;;;;2.90;2.55;;;;;;;20.66;71.21;99806.41;8365052;28;20045;-77
2022/07/03 08:07:04;;;;;;;3.28;2.20;;;;;;;20.72;70.27;99809.66;8340069;28;20048;-76
2022/07/03 08:11:05;;;;;;;3.38;2.10;;;;;;;20.95;69.57;99807.78;8365863;28;20064;-75
2022/07/03 08:15:06;;;;;;;6.03;2.58;;;;;;;21.19;68.32;99796.56;8296171;28;20060;-76
2022/07/03 08:19:07;;;;;;;3.33;2.03;;;;;;;21.51;67.00;99812.84;8366037;28;20416;-75
2022/07/03 08:23:09;;;;;;;3.45;1.83;;;;;;;21.74;65.55;99806.22;8358124;28;20174;-76
2022/07/03 08:27:10;;;;;;;2.90;1.90;;;;;;;21.67;65.86;99810.81;8351964;28;20060;-75
2022/07/03 08:31:11;;;;;;;5.88;1.77;;;;;;;21.48;65.79;99804.16;8349015;28;20049;-75
2022/07/03 08:35:12;;;;;;;5.68;1.40;;;;;;;21.44;65.28;99803.31;8355858;28;20064;-76
2022/07/03 08:39:14;;;;;;;2.35;1.15;;;;;;;21.54;63.00;99803.88;8346382;28;20045;-74
2022/07/03 08:43:15;;;;;;;2.97;1.50;;;;;;;21.46;62.71;99795.50;8355860;28;20045;-76
2022/07/03 08:47:17;;;;;;;2.92;1.27;;;;;;;21.73;62.73;99803.84;8349124;28;20049;-75
2022/07/03 08:51:20;;;;;;;1.27;1.17;;;;;;;21.66;62.41;99803.72;8346791;28;20044;-76
2022/07/03 08:55:21;;;;;;;2.83;1.20;;;;;;;22.20;60.95;99804.28;8345950;28;20037;-75
2022/07/03 08:59:23;;;;;;;1.45;1.25;;;;;;;22.67;59.60;99802.97;8358619;28;20041;-75
2022/07/03 09:03:25;;;;;;;2.38;1.48;;;;;;;22.98;58.82;99799.88;8318415;28;20059;-74
2022/07/03 09:07:27;;;;;;;2.10;1.35;;;;;;;23.03;56.84;99794.03;8363023;28;20049;-75
2022/07/03 09:11:28;;;;;;;2.40;1.50;;;;;;;22.72;57.37;99783.41;8362655;28;20480;-75
2022/07/03 09:15:29;;;;;;;1.45;1.20;;;;;;;22.36;58.73;99786.81;8359836;28;20048;-75
2022/07/03 09:19:45;;;;;;;2.13;1.10;;;;;;;22.13;59.22;99779.41;8356803;28;20496;-75
2022/07/03 09:23:47;;;;;;;1.85;1.27;;;;;;;22.48;58.45;99768.09;8347177;28;20052;-75
2022/07/03 09:27:50;;;;;;;3.65;1.52;;;;;;;23.02;57.48;99775.91;8361932;28;20045;-75
2022/07/03 09:31:58;;;;;;;1.80;1.23;;;;;;;23.15;56.97;99768.22;8295336;28;20052;-75
2022/07/03 09:35:59;;;;;;;4.25;1.10;;;;;;;23.30;55.74;99763.63;8325395;28;20045;-75
2022/07/03 09:40:02;;;;;;;2.13;1.23;;;;;;;23.20;56.05;99764.31;8361435;28;20052;-75
2022/07/03 09:44:04;;;;;;;4.43;1.58;;;;;;;23.69;55.41;99742.75;8330408;28;20412;-75
2022/07/03 09:48:05;;;;;;;1.13;1.00;;;;;;;24.26;54.26;99754.28;8336139;28;20119;-75
2022/07/03 09:52:43;;;;;;;2.80;1.40;;;;;;;24.38;51.44;99745.66;8354016;28;20049;-76
2022/07/03 09:56:44;;;;;;;2.60;1.05;;;;;;;24.11;52.17;99747.06;8361395;28;20461;-75
2022/07/03 10:00:46;;;;;;;3.78;1.30;;;;;;;24.12;51.59;99737.56;8305672;28;20040;-75
2022/07/03 10:04:47;;;;;;;3.05;1.20;;;;;;;23.98;51.77;99744.59;8336557;28;20041;-75
2022/07/03 10:08:48;;;;;;;2.97;1.25;;;;;;;23.73;53.29;99738.09;8352644;28;20041;-74
2022/07/03 10:12:51;;;;;;;1.63;1.00;;;;;;;24.19;52.35;99737.66;8329861;28;20056;-75
2022/07/03 10:16:53;;;;;;;2.22;1.10;;;;;;;24.54;50.97;99740.63;8352934;28;20041;-74
2022/07/03 10:20:57;;;;;;;3.15;1.10;;;;;;;24.40;49.93;99726.75;8355000;28;20397;-75
2022/07/03 10:24:59;;;;;;;2.35;1.10;;;;;;;24.73;48.22;99732.06;8334037;28;20048;-74
2022/07/03 10:29:01;;;;;;;2.40;1.10;;;;;;;24.99;46.72;99719.16;8321300;28;20049;-74
2022/07/03 10:33:02;;;;;;;5.10;1.27;;;;;;;24.81;49.17;99728.13;8322643;28;20037;-76
2022/07/03 10:37:04;;;;;;;3.22;1.30;;;;;;;24.78;48.82;99704.06;8305796;28;20053;-74
2022/07/03 10:45:32;;;;;;;4.00;1.17;;;;;;;25.30;48.87;99696.31;8354484;28;20077;-74
2022/07/03 10:49:34;;;;;;;2.70;1.20;;;;;;;25.52;47.44;99686.84;8357836;28;20045;-76
2022/07/03 10:53:36;;;;;;;1.38;1.17;;;;;;;25.57;47.82;99689.25;8360376;28;20409;-75
2022/07/03 10:57:39;;;;;;;2.30;1.10;;;;;;;25.63;47.30;99693.22;8267381;28;20098;-75
2022/07/03 11:01:40;;;;;;;2.33;1.20;;;;;;;25.84;46.18;99691.59;8309109;28;20489;-75
2022/07/03 11:05:42;;;;;;;2.78;1.20;;;;;;;25.70;44.87;99680.56;8308308;28;20045;-74
2022/07/03 11:09:45;;;;;;;3.38;1.35;;;;;;;25.03;47.56;99675.72;8289181;28;20038;-75
2022/07/03 11:14:19;;;;;;;1.70;1.20;;;;;;;24.80;49.02;99674.06;8227401;28;20058;-75
2022/07/03 11:18:29;;;;;;;2.17;1.58;;;;;;;24.72;48.55;99671.66;8259015;28;20046;-74
2022/07/03 11:22:52;;;;;;;3.80;1.10;;;;;;;24.87;48.89;99683.53;8245199;28;20498;-74
2022/07/03 11:27:12;;;;;;;1.58;0.95;;;;;;;24.93;48.63;99663.47;8264311;28;20141;-75
2022/07/03 11:31:15;;;;;;;1.27;1.00;;;;;;;24.71;45.04;99653.50;8272082;28;20521;-75
2022/07/03 11:35:52;;;;;;;2.25;1.10;;;;;;;24.74;46.15;99653.53;8275438;28;20050;-76
2022/07/03 11:39:58;;;;;;;2.27;1.23;;;;;;;24.64;48.13;99665.31;8230866;28;20664;-75
2022/07/03 11:44:04;;;;;;;5.55;1.13;;;;;;;24.60;48.78;99653.47;8239156;28;20056;-75
2022/07/03 11:48:13;;;;;;;2.10;1.40;;;;;;;24.73;48.47;99651.94;8254239;28;20057;-75
2022/07/03 11:52:33;;;;;;;2.83;1.15;;;;;;;25.36;48.72;99644.97;8339512;28;20054;-75
2022/07/03 11:56:38;;;;;;;4.00;1.73;;;;;;;26.01;46.22;99652.06;8309334;28;20049;-76
2022/07/03 12:00:39;;;;;;;1.52;1.10;;;;;;;26.07;45.03;99650.44;8312625;28;20067;-78
2022/07/03 12:04:41;;;;;;;3.10;0.98;;;;;;;26.14;44.41;99633.81;8329732;28;20044;-76
2022/07/03 12:08:46;;;;;;;9.38;1.30;;;;;;;26.18;45.05;99640.13;8363755;28;20048;-76
2022/07/03 12:12:47;;;;;;;2.45;1.02;;;;;;;26.39;44.24;99622.66;8364689;28;20454;-74
2022/07/03 12:16:48;;;;;;;1.65;1.00;;;;;;;26.42;43.58;99614.38;8361247;28;20087;-75
2022/07/03 12:20:49;;;;;;;2.08;1.10;;;;;;;26.48;45.45;99615.53;8358811;28;20057;-75
2022/07/03 12:25:13;;;;;;;1.63;1.30;;;;;;;26.63;44.94;99609.91;8363779;28;20052;-75
2022/07/03 12:29:16;;;;;;;1.35;1.20;;;;;;;26.69;45.09;99597.22;8354498;28;20045;-76
2022/07/03 12:33:17;;;;;;;2.40;1.25;;;;;;;26.82;45.41;99607.41;8340910;28;20048;-75
2022/07/03 12:37:34;;;;;;;3.17;1.25;;;;;;;27.02;44.44;99604.91;8346141;28;20074;-75
2022/07/03 12:41:35;;;;;;;3.60;1.33;;;;;;;27.13;41.61;99600.09;8301643;28;20064;-75
2022/07/03 12:45:36;;;;;;;3.40;1.00;;;;;;;27.14;40.58;99596.13;8346516;28;20056;-74
2022/07/03 12:49:38;;;;;;;3.80;1.13;;;;;;;27.04;41.34;99602.53;8364126;28;20132;-75
2022/07/03 12:53:41;;;;;;;5.03;1.00;;;;;;;27.20;41.89;99599.25;8346017;28;20045;-76
2022/07/03 13:02:04;;;;;;;2.47;1.20;;;;;;;27.44;40.47;99603.03;8313330;28;20049;-74
2022/07/03 13:06:15;;;;;;;1.60;1.10;;;;;;;27.50;39.78;99595.84;8363871;28;20052;-75
2022/07/03 13:10:17;;;;;;;2.20;1.10;;;;;;;27.49;38.35;99589.50;8350297;28;20045;-76
2022/07/03 13:14:18;;;;;;;3.60;1.20;;;;;;;27.45;38.99;99582.38;8334637;28;20405;-75
2022/07/03 13:18:21;;;;;;;2.40;1.27;;;;;;;27.41;40.37;99581.63;8313081;28;20136;-75
2022/07/03 13:22:22;;;;;;;3.35;1.10;;;;;;;27.63;41.47;99583.84;8356087;28;20148;-75
2022/07/03 13:26:23;;;;;;;2.85;1.27;;;;;;;27.69;39.72;99581.41;8362854;28;20045;-76
2022/07/03 13:30:24;;;;;;;1.33;1.13;;;;;;;27.62;40.41;99571.16;8348924;28;20064;-75
2022/07/03 13:34:25;;;;;;;3.47;1.17;;;;;;;27.65;40.71;99569.56;8350940;28;20114;-75
2022/07/03 13:38:26;;;;;;;3.47;1.35;;;;;;;27.89;39.34;99568.47;8350906;28;20052;-76
2022/07/03 13:42:27;;;;;;;2.90;1.30;;;;;;;29.70;37.31;99572.19;8362405;28;20053;-75
2022/07/03 13:46:28;;;;;;;2.15;1.17;;;;;;;31.17;35.69;99568.66;8305057;28;20505;-75
2022/07/03 13:50:30;;;;;;;2.92;1.20;;;;;;;32.23;32.23;99563.00;8361821;28;20037;-76
2022/07/03 13:54:31;;;;;;;2.55;1.30;;;;;;;32.80;31.66;99572.47;8362720;28;20049;-76
2022/07/03 13:58:32;;;;;;;1.90;1.08;;;;;;;33.99;30.91;99565.25;8363446;28;20547;-75
2022/07/03 14:02:33;;;;;;;1.30;1.20;;;;;;;34.48;30.11;99569.00;8362365;28;20098;-75
2022/07/03 14:06:36;;;;;;;2.20;1.23;;;;;;;34.60;29.75;99562.50;8361235;28;20041;-76
2022/07/03 14:10:38;;;;;;;1.10;1.00;;;;;;;34.90;28.92;99554.56;8362807;28;20492;-77
2022/07/03 14:14:39;;;;;;;3.88;1.58;;;;;;;36.00;27.00;99550.63;8334143;28;20052;-76
2022/07/03 14:18:40;;;;;;;1.92;1.20;;;;;;;36.79;26.96;99542.91;8349580;28;20496;-77
2022/07/03 14:22:42;;;;;;;1.40;1.17;;;;;;;37.32;25.67;99550.75;8361749;28;20053;-77
2022/07/03 14:32:28;;;;;;;2.22;1.20;;;;;;;38.14;25.56;99524.69;8368920;28;20102;-77
2022/07/03 14:35:39;;;;;;;5.72;1.30;;;;;;;37.31;25.53;99518.22;8366144;28;20049;-77
2022/07/03 14:39:40;;;;;;;1.42;1.23;;;;;;;38.42;25.00;99517.47;8300390;28;20044;-76
2022/07/03 14:43:41;;;;;;;2.00;1.40;;;;;;;39.53;23.46;99536.03;8367594;28;20091;-76
2022/07/03 14:47:42;;;;;;;1.35;1.00;;;;;;;40.07;22.66;99530.69;8360880;28;20476;-77
2022/07/03 14:51:43;;;;;;;1.70;1.13;;;;;;;40.09;21.81;99525.28;8321540;28;20045;-77
2022/07/03 14:55:45;;;;;;;2.08;1.23;;;;;;;40.65;21.01;99515.25;8366783;28;20137;-77
2022/07/03 14:59:57;;;;;;;8.63;1.63;;;;;;;40.30;21.57;99523.97;8366990;28;20069;-76
2022/07/03 15:04:03;;;;;;;1.30;1.20;;;;;;;39.44;22.74;99516.41;8365832;28;20041;-76
2022/07/03 15:08:07;;;;;;;1.88;1.23;;;;;;;37.72;24.65;99517.25;8343615;28;20053;-76
2022/07/03 15:12:27;;;;;;;1.65;1.30;;;;;;;38.38;24.13;99511.25;8363215;28;20051;-76
2022/07/03 15:16:29;;;;;;;3.53;1.38;;;;;;;38.43;24.53;99507.75;8313501;28;20095;-75
2022/07/03 15:20:36;;;;;;;1.45;1.10;;;;;;;37.90;24.75;99517.09;8341716;28;20163;-75
2022/07/03 15:24:37;;;;;;;1.48;1.13;;;;;;;38.53;24.29;99511.25;8363977;28;20056;-75
2022/07/03 15:28:38;;;;;;;1.23;1.13;;;;;;;39.48;22.11;99505.66;8365008;28;20131;-75
2022/07/03 15:32:40;;;;;;;1.90;1.08;;;;;;;40.17;20.77;99503.78;8345719;28;20492;-76
2022/07/03 15:36:47;;;;;;;1.90;1.20;;;;;;;40.10;21.55;99492.91;8365084;28;20052;-74
2022/07/03 15:40:54;;;;;;;1.60;1.35;;;;;;;39.95;21.77;99495.88;8331829;28;20064;-75
2022/07/03 15:45:17;;;;;;;1.95;1.15;;;;;;;38.47;23.02;99491.41;8359097;28;20071;-77
2022/07/03 15:49:27;;;;;;;1.52;1.25;;;;;;;37.67;23.06;99481.31;8348449;28;20033;-75
2022/07/03 15:53:29;;;;;;;3.30;1.30;;;;;;;36.92;23.60;99475.91;8304763;28;20048;-74
2022/07/03 15:57:53;;;;;;;1.48;1.20;;;;;;;35.61;26.48;99479.31;8299064;28;20492;-75
2022/07/03 16:02:17;;;;;;;1.42;1.10;;;;;;;33.69;28.20;99469.47;8336958;28;20045;-76
2022/07/03 16:06:19;;;;;;;1.92;1.60;;;;;;;33.04;28.38;99464.56;8358171;28;20037;-76
2022/07/03 16:10:21;;;;;;;2.65;1.40;;;;;;;31.79;29.74;99466.09;8339977;28;20041;-77
2022/07/03 16:14:22;;;;;;;2.53;1.23;;;;;;;31.38;30.45;99459.25;8333109;28;20067;-78
2022/07/03 16:18:24;;;;;;;1.77;1.60;;;;;;;31.35;31.10;99465.75;8337379;28;20045;-76
2022/07/03 16:22:27;;;;;;;1.45;1.30;;;;;;;31.33;31.28;99461.81;8364439;28;20428;-75
2022/07/03 16:26:30;;;;;;;2.45;1.38;;;;;;;31.07;31.23;99455.34;8305852;28;20060;-76
2022/07/03 16:30:32;;;;;;;2.97;1.38;;;;;;;31.07;30.40;99449.75;8359371;28;20122;-76
2022/07/03 16:34:50;;;;;;;2.47;1.30;;;;;;;32.11;30.13;99460.38;8262288;28;20506;-76
2022/07/03 16:38:57;;;;;;;1.67;1.25;;;;;;;32.60;28.95;99451.66;8261098;28;20141;-76
2022/07/03 16:43:02;;;;;;;2.50;1.65;;;;;;;31.67;31.27;99452.91;8243336;28;20133;-77
2022/07/03 16:47:04;;;;;;;1.60;1.40;;;;;;;30.61;33.67;99439.75;8261616;28;20050;-75
2022/07/03 16:51:09;;;;;;;1.70;1.45;;;;;;;30.02;34.46;99451.06;8257069;28;20089;-77
2022/07/03 16:55:12;;;;;;;1.60;1.50;;;;;;;29.92;35.31;99454.88;8241485;28;20055;-77
2022/07/03 16:59:14;;;;;;;3.80;1.50;;;;;;;29.71;34.66;99444.94;8256128;28;20050;-75
2022/07/03 17:03:19;;;;;;;2.00;1.42;;;;;;;29.13;34.70;99449.22;8248551;28;20061;-75
2022/07/03 17:07:21;;;;;;;1.55;1.42;;;;;;;28.53;36.60;99451.00;8236768;28;20510;-76
2022/07/03 17:11:22;;;;;;;3.47;1.73;;;;;;;28.06;37.65;99445.34;8308974;28;20563;-77
2022/07/03 17:15:26;;;;;;;5.00;1.63;;;;;;;27.83;38.28;99442.47;8354589;28;20072;-75
2022/07/03 17:19:31;;;;;;;6.88;1.50;;;;;;;27.63;38.97;99452.63;8353343;28;20136;-76
2022/07/03 17:23:36;;;;;;;3.45;1.80;;;;;;;27.53;39.62;99439.69;8361668;28;20049;-75
2022/07/03 17:27:37;;;;;;;3.47;2.13;;;;;;;27.29;40.46;99441.50;8350979;28;20456;-76
2022/07/03 17:31:42;;;;;;;3.80;1.77;;;;;;;27.02;41.57;99444.16;8352757;28;20136;-75
2022/07/03 17:35:45;;;;;;;5.93;2.15;;;;;;;26.74;43.00;99438.88;8349853;28;20041;-75
2022/07/03 17:39:47;;;;;;;10.65;3.70;;;;;;;26.39;43.80;99429.63;8332683;28;20053;-75
2022/07/03 17:43:49;;;;;;;4.10;1.73;;;;;;;26.13;45.36;99432.94;8338501;28;20069;-76
2022/07/03 17:47:50;;;;;;;5.38;2.03;;;;;;;25.89;46.72;99436.66;8355719;28;20044;-76
2022/07/03 17:51:52;;;;;;;4.38;1.95;;;;;;;25.70;47.57;99445.44;8354955;28;20040;-76
2022/07/03 17:55:56;;;;;;;4.75;2.17;;;;;;;25.48;48.46;99441.94;8331893;28;20037;-76
2022/07/03 17:59:58;;;;;;;5.82;2.10;;;;;;;25.30;49.39;99453.03;8318867;28;20045;-76
2022/07/03 18:04:00;;;;;;;3.90;1.90;;;;;;;25.07;50.07;99438.88;8329817;28;20048;-77
2022/07/03 18:08:23;;;;;;;3.05;2.38;;;;;;;24.88;51.99;99442.06;8336706;28;20048;-76
2022/07/03 18:12:25;;;;;;;2.67;2.00;;;;;;;24.69;52.49;99446.00;8337629;28;20411;-75
2022/07/03 18:16:37;;;;;;;2.60;1.83;;;;;;;24.51;53.40;99434.94;8337314;28;20051;-75
2022/07/03 18:20:41;;;;;;;2.67;2.05;;;;;;;24.28;53.12;99431.75;8340937;28;20053;-75
2022/07/03 18:24:43;;;;;;;3.85;2.08;;;;;;;24.16;53.46;99434.88;8357969;28;20095;-76
2022/07/03 18:28:44;;;;;;;2.83;2.10;;;;;;;24.03;53.95;99425.38;8358719;28;20048;-74
2022/07/03 18:32:46;;;;;;;6.30;2.78;;;;;;;23.80;54.61;99429.25;8320484;28;20049;-74
2022/07/03 18:36:48;;;;;;;5.28;2.90;;;;;;;23.62;55.22;99428.41;8339150;28;20493;-75
2022/07/03 18:40:49;;;;;;;4.30;2.67;;;;;;;23.47;56.30;99433.09;8353988;28;20455;-76
2022/07/03 18:44:50;;;;;;;6.65;3.50;;;;;;;23.31;57.05;99429.03;8341987;28;20053;-74
2022/07/03 18:48:51;;;;;;;8.05;3.53;;;;;;;23.11;57.67;99425.75;8355987;28;20053;-75
2022/07/03 18:53:07;;;;;;;8.30;3.30;;;;;;;22.94;58.46;99426.44;8357312;28;20497;-75
2022/07/03 18:57:23;;;;;;;3.30;2.67;;;;;;;22.76;59.31;99431.81;8322087;28;20493;-75
2022/07/03 19:01:28;;;;;;;3.92;3.20;;;;;;;22.66;60.17;99432.50;8356441;28;20046;-75
2022/07/03 19:05:59;;;;;;;6.82;2.92;;;;;;;22.52;60.92;99432.38;8339666;28;20053;-73
2022/07/03 19:10:09;;;;;;;5.50;2.60;;;;;;;22.33;62.01;99442.44;8351261;28;20492;-75
2022/07/03 19:14:11;;;;;;;3.88;2.92;;;;;;;22.16;62.38;99437.53;8349326;28;20063;-75
2022/07/03 19:18:13;;;;;;;5.20;2.45;;;;;;;22.02;62.80;99442.91;8333478;28;20098;-76
2022/07/03 19:22:14;;;;;;;4.35;2.85;;;;;;;21.85;63.31;99441.50;8249930;28;20421;-78
2022/07/03 19:26:15;;;;;;;3.00;2.50;;;;;;;21.71;63.49;99440.56;8262186;28;20046;-75